Noord Nederlandse Zweefvliegclub

NL-0036 · Groningen, Nederland

METAR historie NL-0036 · Noord Nederlandse Zweefvliegclub

Hieronder zie je METAR's van de afgelopen dagen. Kies een jaar om door oudere METAR's te bladeren, vanaf het jaar 2007.

29 november 2022

Tijd Code Weer Temp. Zicht Plafond Wind METAR/SPECI
22:55
M
8 °C 10 km+ 1.600 ft Var Var 2 kt METAR EHLE 292155Z AUTO VRB02KT 9999 OVC016 08/07 Q1022
22:25
M
8 °C 7 km 1.600 ft 050° 050° 3 kt METAR EHLE 292125Z AUTO 05003KT 7000 OVC016 08/07 Q1022
21:55
M
7 °C 5 km 3.400 ft 340° 340° 2 kt METAR EHLE 292055Z AUTO 34002KT 5000 BR SCT025 BKN034 07/07 Q1021 BECMG 4000
21:25
M
8 °C 10 km+ 1.400 ft 360° 360° 3 kt METAR EHLE 292025Z AUTO 36003KT 330V030 9999 OVC014 08/08 Q1021 BECMG BKN015
20:55
M
8 °C 10 km+ 1.400 ft 330° 330° 3 kt METAR EHLE 291955Z AUTO 33003KT 9999 SCT007 OVC014 08/08 Q1021 BECMG BKN015
20:25
M
8 °C 10 km+ 1.300 ft 300° 300° 3 kt METAR EHLE 291925Z AUTO 30003KT 9999 BKN013 OVC015 08/08 Q1021 BECMG BKN015
19:55
I
8 °C 10 km+ 700 ft 330° 330° 3 kt METAR EHLE 291855Z AUTO 33003KT 9999 SCT006 BKN007 BKN009 08/08 Q1021 BECMG BKN015
19:25
M
9 °C 10 km+ 1.300 ft 310° 310° 4 kt METAR EHLE 291825Z AUTO 31004KT 9999 SCT011 OVC013 09/08 Q1020 BECMG BKN015
18:55
M
9 °C 10 km+ 1.100 ft 310° 310° 5 kt METAR EHLE 291755Z AUTO 31005KT 270V340 9999 OVC011 09/08 Q1020 BECMG BKN015
18:25
M
9 °C 10 km+ 1.100 ft 310° 310° 6 kt METAR EHLE 291725Z AUTO 31006KT 270V340 9999 BKN011 OVC015 09/08 Q1020 TEMPO 4000 -RADZ
17:55
I
9 °C 5 km 800 ft 300° 300° 6 kt METAR EHLE 291655Z AUTO 30006KT 270V330 5000 +DZ BKN008 OVC009 09/09 Q1020 TEMPO 4000 -RADZ
17:25
M
9 °C 10 km+ 1.300 ft 300° 300° 6 kt METAR EHLE 291625Z AUTO 30006KT 9999 BR SCT010 OVC013 09/08 Q1020 TEMPO 7000 -RADZ
16:55
M
9 °C 6 km 1.100 ft 290° 290° 5 kt METAR EHLE 291555Z AUTO 29005KT 6000 OVC011 09/08 Q1020 TEMPO 4000 -RADZ
16:25
I
9 °C 3,7 km 1.900 ft 310° 310° 5 kt METAR EHLE 291525Z AUTO 31005KT 280V340 3700 DZ FEW006 BKN019 OVC023 09/08 Q1020 RERA REDZ TEMPO 5000 -RADZ BKN014
15:55
M
9 °C 5 km 1.900 ft 280° 280° 5 kt METAR EHLE 291455Z AUTO 28005KT 240V310 5000 FEW012 OVC019 09/08 Q1019 TEMPO 5000 -RADZ BKN014
15:25
M
10 °C 10 km+ 1.700 ft 280° 280° 4 kt METAR EHLE 291425Z AUTO 28004KT 9999 OVC017 10/08 Q1019 TEMPO 5000 -RADZ BKN014
14:55
M
10 °C 10 km+ 2.300 ft 280° 280° 5 kt METAR EHLE 291355Z AUTO 28005KT 250V310 9999 BKN023 OVC027 10/08 Q1019 NOSIG
14:25
V
10 °C 10 km+ - 260° 260° 7 kt METAR EHLE 291325Z AUTO 26007KT 240V300 9999 NCD 10/08 Q1019 NOSIG
13:55
V
10 °C 10 km+ - 280° 280° 4 kt METAR EHLE 291255Z AUTO 28004KT 240V320 9999 NCD 10/08 Q1019 NOSIG
13:25
M
10 °C 10 km+ 2.700 ft 310° 310° 4 kt METAR EHLE 291225Z AUTO 31004KT 280V340 9999 SCT023 BKN027 10/09 Q1019 NOSIG
12:55
M
9 °C 7 km - 250° 250° 4 kt METAR EHLE 291155Z AUTO 25004KT 210V280 7000 FEW002 SCT026 09/09 Q1019 BECMG SCT003
12:25
L
9 °C 4 km 100 ft 260° 260° 4 kt METAR EHLE 291125Z AUTO 26004KT 230V290 4000 BKN001 OVC002 09/08 Q1018 BECMG BKN002
11:55
L
8 °C 450 m - 250° 250° 5 kt METAR EHLE 291055Z AUTO 25005KT 0450 R23/P2000N BR VV000 08/08 Q1018 BECMG BKN002
11:25
L
8 °C 2,5 km 100 ft 250° 250° 5 kt METAR EHLE 291025Z AUTO 25005KT 2500 R23/1000N FG SCT000 OVC001 08/08 Q1018 BECMG 1200 BR BKN002
10:55
L
7 °C 250 m - 260° 260° 4 kt METAR EHLE 290955Z AUTO 26004KT 230V290 0250 R23/0650U FG VV000 07/07 Q1018 NOSIG
10:25
L
7 °C 200 m - 240° 240° 6 kt METAR EHLE 290925Z AUTO 24006KT 0200 R23/0325N FG VV000 07/07 Q1018 NOSIG
09:55
L
7 °C 200 m - 260° 260° 3 kt METAR EHLE 290855Z AUTO 26003KT 230V290 0200 R23/0275N FG VV000 07/07 Q1018 NOSIG
09:25
L
7 °C 200 m - 270° 270° 4 kt METAR EHLE 290825Z AUTO 27004KT 0200 R23/0350N FG VV000 07/07 Q1017 NOSIG
08:55
L
7 °C 250 m - 270° 270° 4 kt METAR EHLE 290755Z AUTO 27004KT 240V300 0250 R23/0350N FG VV000 07/07 Q1017 NOSIG
08:25
L
7 °C 250 m - 250° 250° 3 kt METAR EHLE 290725Z AUTO 25003KT 210V280 0250 R23/0400N FG VV000 07/07 Q1017 NOSIG
07:55
L
7 °C 350 m - 250° 250° 4 kt METAR EHLE 290655Z AUTO 25004KT 0350 R23/0550U FG VV000 07/07 Q1017 NOSIG
07:25
L
7 °C 350 m - 240° 240° 3 kt METAR EHLE 290625Z AUTO 24003KT 0350 R23/0450N FG VV000 07/07 Q1016 NOSIG
06:55
L
7 °C 450 m - 290° 290° 3 kt METAR EHLE 290555Z AUTO 29003KT 250V340 0450 R23/0600D FG VV000 07/07 Q1016 NOSIG
06:25
L
8 °C 550 m - 290° 290° 4 kt METAR EHLE 290525Z AUTO 29004KT 260V320 0550 FG VV000 08/07 Q1016
05:55
L
8 °C 500 m 100 ft 290° 290° 3 kt METAR EHLE 290455Z AUTO 29003KT 0500 FG BKN000 OVC001 08/08 Q1015
05:25
L
8 °C 350 m - 260° 260° 3 kt METAR EHLE 290425Z AUTO 26003KT 0350 FG VV000 08/08 Q1015
04:55
L
8 °C 250 m - 180° 180° 1 kt METAR EHLE 290355Z AUTO 18001KT 0250 FG VV000 08/08 Q1015
04:25
L
8 °C 300 m - 170° 170° 2 kt METAR EHLE 290325Z AUTO 17002KT 0300 FG VV000 08/08 Q1015
03:55
L
8 °C 250 m - 180° 180° 2 kt METAR EHLE 290255Z AUTO 18002KT 0250 FG VV000 08/08 Q1015
03:25
L
8 °C 300 m - Var Var 2 kt METAR EHLE 290225Z AUTO VRB02KT 0300 FG VV000 08/08 Q1014
02:55
L
8 °C 350 m - 260° 260° 2 kt METAR EHLE 290155Z AUTO 26002KT 0350 FG VV000 08/08 Q1014
02:25
L
8 °C 350 m - 250° 250° 4 kt METAR EHLE 290125Z AUTO 25004KT 0350 FG VV000 08/08 Q1014
01:55
L
8 °C 400 m - 240° 240° 4 kt METAR EHLE 290055Z AUTO 24004KT 0400 FG VV000 08/08 Q1014
01:25
L
8 °C 450 m - 250° 250° 3 kt METAR EHLE 290025Z AUTO 25003KT 0450 FG VV000 08/07 Q1014
00:55
L
8 °C 550 m - 250° 250° 5 kt METAR EHLE 282355Z AUTO 25005KT 0550 FG VV000 08/07 Q1014
00:25
L
8 °C 550 m - 240° 240° 5 kt METAR EHLE 282325Z AUTO 24005KT 0550 FG VV000 08/08 Q1014

28 november 2022

Tijd Code Weer Temp. Zicht Plafond Wind METAR/SPECI
23:55
L
8 °C 500 m - 230° 230° 4 kt METAR EHLE 282255Z AUTO 23004KT 0500 FG VV000 08/08 Q1013
23:25
L
8 °C 550 m - 240° 240° 3 kt METAR EHLE 282225Z AUTO 24003KT 210V270 0550 FG VV000 08/08 Q1013
22:55
L
8 °C 1,7 km 100 ft 270° 270° 4 kt METAR EHLE 282155Z AUTO 27004KT 1700 FG BKN001 OVC002 08/08 Q1013
22:25
L
8 °C 700 m - 250° 250° 4 kt METAR EHLE 282125Z AUTO 25004KT 0700 FG VV000 08/08 Q1013
21:55
L
8 °C 650 m - Var Var 2 kt METAR EHLE 282055Z AUTO VRB02KT 0650 FG VV000 08/08 Q1013
21:25
L
8 °C 750 m - 230° 230° 5 kt METAR EHLE 282025Z AUTO 23005KT 0750 R23/0700N FG VV000 08/08 Q1012 NOSIG
20:55
L
7 °C 700 m - 240° 240° 5 kt METAR EHLE 281955Z AUTO 24005KT 0700 R23/0800U FG VV000 07/07 Q1012 NOSIG
20:25
L
6 °C 300 m - 250° 250° 4 kt METAR EHLE 281925Z AUTO 25004KT 0300 R23/0325N FG OVC000 06/06 Q1012 NOSIG
19:55
L
6 °C 350 m - 230° 230° 2 kt METAR EHLE 281855Z AUTO 23002KT 0350 R23/0375N FG NSC 06/06 Q1012 NOSIG
19:25
L
6 °C 350 m - 220° 220° 2 kt METAR EHLE 281825Z AUTO 22002KT 0350 R23/0350N FG NSC 06/06 Q1012 NOSIG
18:55
L
7 °C 500 m - Var Var 2 kt METAR EHLE 281755Z AUTO VRB02KT 0500 R23/1900U BR NSC 07/07 Q1011 NOSIG
18:25
L
8 °C 2,1 km 400 ft 220° 220° 4 kt METAR EHLE 281725Z AUTO 22004KT 2100 BR BKN004 BKN006 08/08 Q1011 NOSIG
17:55
I
8 °C 1,6 km 600 ft 190° 190° 2 kt METAR EHLE 281655Z AUTO 19002KT 1600 R23/1300U BR SCT005 OVC006 08/08 Q1011 NOSIG
17:25
I
9 °C 1,8 km - 200° 200° 3 kt METAR EHLE 281625Z AUTO 20003KT 1800 BR NSC 09/08 Q1011 NOSIG
16:55
I
9 °C 2,5 km 600 ft 160° 160° 4 kt METAR EHLE 281555Z AUTO 16004KT 2500 BR OVC006 09/09 Q1010 BECMG BKN005
16:25
I
9 °C 2,9 km 600 ft 170° 170° 3 kt METAR EHLE 281525Z AUTO 17003KT 2900 BR OVC006 09/09 Q1010 BECMG BKN005
15:55
L
10 °C 3,2 km 400 ft 230° 230° 4 kt METAR EHLE 281455Z AUTO 23004KT 3200 BR OVC004 10/09 Q1010 BECMG BKN005
15:25
L
10 °C 3,4 km 300 ft 210° 210° 4 kt METAR EHLE 281425Z AUTO 21004KT 180V240 3400 BR OVC003 10/10 Q1010 NOSIG
14:55
L
9 °C 2,9 km 300 ft 230° 230° 6 kt METAR EHLE 281355Z AUTO 23006KT 200V270 2900 BR OVC003 09/09 Q1010 NOSIG
14:25
L
9 °C 1 km 100 ft 200° 200° 5 kt METAR EHLE 281325Z AUTO 20005KT 180V240 1000 R23/1200N BR OVC001 09/09 Q1009 NOSIG
13:55
L
9 °C 800 m 100 ft 200° 200° 6 kt METAR EHLE 281255Z AUTO 20006KT 170V240 0800 R23/1100N FG VV001 09/09 Q1009 BECMG SCT002 OVC003
13:25
L
9 °C 1,3 km 100 ft 200° 200° 7 kt METAR EHLE 281225Z AUTO 20007KT 1300 R23/1800N BR OVC001 09/09 Q1009 BECMG SCT002 OVC003
12:55
L
9 °C 2,4 km 200 ft 190° 190° 6 kt METAR EHLE 281155Z AUTO 19006KT 160V220 2400 BR OVC002 09/09 Q1009 BECMG SCT002 OVC003
12:25
L
9 °C 4 km 200 ft 200° 200° 5 kt METAR EHLE 281125Z AUTO 20005KT 4000 BR BKN002 OVC003 09/09 Q1009 BECMG SCT002 OVC003
11:55
L
9 °C 3,4 km 200 ft 190° 190° 7 kt METAR EHLE 281055Z AUTO 19007KT 3400 BR BKN002 OVC003 09/09 Q1009 TEMPO 3000
11:25
L
8 °C 4,1 km 200 ft 190° 190° 6 kt METAR EHLE 281025Z AUTO 19006KT 150V210 4100 BR OVC002 08/08 Q1009 TEMPO 3000
10:55
L
8 °C 4,7 km 200 ft 190° 190° 6 kt METAR EHLE 280955Z AUTO 19006KT 4700 BR OVC002 08/08 Q1009 TEMPO 3000
10:25
L
8 °C 6 km 300 ft 190° 190° 7 kt METAR EHLE 280925Z AUTO 19007KT 6000 OVC003 08/08 Q1009 TEMPO 3000 BKN003
09:55
L
8 °C 6 km 300 ft 190° 190° 7 kt METAR EHLE 280855Z AUTO 19007KT 6000 DZ BKN003 OVC004 08/08 Q1009 TEMPO 3000 BKN003
09:25
I
8 °C 3,5 km 1.900 ft 200° 200° 7 kt METAR EHLE 280825Z AUTO 20007KT 160V220 3500 DZ SCT003 BKN019 OVC034 08/08 Q1009 TEMPO 3000 BKN003
08:55
I
8 °C 3,8 km 2.600 ft 190° 190° 7 kt METAR EHLE 280755Z AUTO 19007KT 3800 +DZRA FEW003 BKN026 OVC029 08/08 Q1008 TEMPO 3000 BKN003
08:25
I
8 °C 5 km 500 ft 200° 200° 8 kt METAR EHLE 280725Z AUTO 20008KT 5000 -RA FEW003 BKN005 OVC006 08/08 Q1008 RERA REDZ TEMPO 3000 BKN003
07:55
L
8 °C 6 km 300 ft 200° 200° 8 kt METAR EHLE 280655Z AUTO 20008KT 160V220 6000 +DZ BKN003 OVC005 08/08 Q1008 NOSIG
07:25
L
8 °C 6 km 300 ft 200° 200° 10 kt METAR EHLE 280625Z AUTO 20010KT 6000 +DZRA BKN003 OVC004 08/08 Q1008 NOSIG
06:55
L
8 °C 7 km 300 ft 190° 190° 11 kt METAR EHLE 280555Z AUTO 19011KT 170V230 7000 -UP BKN003 OVC004 08/08 Q1008 NOSIG
06:25
L
8 °C 6 km 300 ft 190° 190° 10 kt METAR EHLE 280525Z AUTO 19010KT 6000 BKN003 OVC004 08/08 Q1007 REDZ
05:55
L
8 °C 2,8 km 300 ft 190° 190° 10 kt METAR EHLE 280455Z AUTO 19010KT 170V230 2800 DZ BKN003 OVC004 08/08 Q1007
05:25
L
8 °C 8 km 400 ft 190° 190° 11 kt METAR EHLE 280425Z AUTO 19011KT 8000 BKN004 OVC005 08/08 Q1007 REDZ
04:55
I
8 °C 4,2 km 500 ft 190° 190° 9 kt METAR EHLE 280355Z AUTO 19009KT 170V230 4200 DZ SCT004 BKN005 OVC006 08/08 Q1007
04:25
L
8 °C 4 km 400 ft 190° 190° 10 kt METAR EHLE 280325Z AUTO 19010KT 4000 DZ FEW003 BKN004 OVC006 08/08 Q1007
03:55
L
7 °C 4,8 km 400 ft 180° 180° 9 kt METAR EHLE 280255Z AUTO 18009KT 4800 DZ SCT003 BKN004 OVC006 07/07 Q1007
03:25
L
7 °C 4,7 km 400 ft 180° 180° 10 kt METAR EHLE 280225Z AUTO 18010KT 4700 DZ FEW003 BKN004 OVC005 07/07 Q1008
02:55
L
7 °C 4,7 km 400 ft 170° 170° 10 kt METAR EHLE 280155Z AUTO 17010KT 4700 DZ FEW003 BKN004 OVC006 07/07 Q1008
02:25
I
7 °C 4,5 km 500 ft 170° 170° 9 kt METAR EHLE 280125Z AUTO 17009KT 140V200 4500 DZ SCT003 BKN005 OVC006 07/07 Q1008
01:55
I
7 °C 5 km 600 ft 170° 170° 10 kt METAR EHLE 280055Z AUTO 17010KT 5000 DZ FEW004 SCT005 OVC006 07/07 Q1008
01:25
I
7 °C 6 km 700 ft 170° 170° 11 kt METAR EHLE 280025Z AUTO 17011KT 6000 -RA FEW004 SCT006 BKN007 07/06 Q1009 RERA REDZ
00:55
M
7 °C 10 km+ 1.400 ft 160° 160° 10 kt METAR EHLE 272355Z AUTO 16010KT 9999 +DZ FEW011 OVC014 07/06 Q1009
00:25
M
7 °C 10 km+ 1.400 ft 160° 160° 10 kt METAR EHLE 272325Z AUTO 16010KT 9999 -DZ BKN014 OVC017 07/06 Q1009 REDZ

27 november 2022

Tijd Code Weer Temp. Zicht Plafond Wind METAR/SPECI
23:55
M
7 °C 10 km+ 1.400 ft 170° 170° 11 kt METAR EHLE 272255Z AUTO 17011KT 9999 -DZ FEW009 BKN014 FEW015CB 07/06 Q1009 REDZ
23:25
I
7 °C 10 km+ 900 ft 160° 160° 11 kt METAR EHLE 272225Z AUTO 16011KT 9999 -RA FEW007 BKN009 BKN011 FEW015CB 07/06 Q1010
22:55
M
7 °C 10 km+ 1.900 ft 160° 160° 10 kt METAR EHLE 272155Z AUTO 16010KT 9999 -RA FEW011 SCT015CB OVC019 07/06 Q1010 RERA REDZ
22:25
M
6 °C 10 km+ 1.700 ft 150° 150° 10 kt METAR EHLE 272125Z AUTO 15010KT 120V180 9999 -RA FEW007 OVC017 06/06 Q1011 RERA REDZ
21:55
M
7 °C 10 km+ 1.600 ft 160° 160° 10 kt METAR EHLE 272055Z AUTO 16010KT 9999 -RA FEW008 SCT010 FEW015CB BKN016 07/06 Q1011 RERA REDZ TEMPO 7000 BKN014
21:25
M
7 °C 10 km+ 1.200 ft 160° 160° 9 kt METAR EHLE 272025Z AUTO 16009KT 9999 -RA FEW008 SCT010 BKN012 07/06 Q1011 RERA REDZ TEMPO 7000 BKN014
20:55
M
7 °C 10 km+ 1.900 ft 160° 160° 10 kt METAR EHLE 271955Z AUTO 16010KT 9999 -RA FEW011 FEW015CB OVC019 07/06 Q1012 TEMPO 7000 BKN014
20:25
M
7 °C 10 km+ 1.800 ft 160° 160° 9 kt METAR EHLE 271925Z AUTO 16009KT 9999 -RADZ OVC018 07/06 Q1012 TEMPO BKN014
19:55
M
7 °C 10 km+ 1.800 ft 160° 160° 8 kt METAR EHLE 271855Z AUTO 16008KT 9999 -RA OVC018 07/06 Q1012 RERA REDZ TEMPO BKN014
19:25
M
7 °C 10 km+ 1.900 ft 170° 170° 10 kt METAR EHLE 271825Z AUTO 17010KT 9999 DZ OVC019 07/06 Q1013 TEMPO BKN014
18:55
M
7 °C 10 km+ 2.100 ft 170° 170° 9 kt METAR EHLE 271755Z AUTO 17009KT 9999 -RADZ OVC021 07/05 Q1013 TEMPO BKN014
18:25
M
7 °C 10 km+ 1.700 ft 170° 170° 11 kt METAR EHLE 271725Z AUTO 17011KT 9999 -DZ BKN017 OVC020 07/05 Q1013 TEMPO -RADZ BKN014
17:55
M
7 °C 10 km+ 1.800 ft 160° 160° 8 kt METAR EHLE 271655Z AUTO 16008KT 140V200 9999 OVC018 07/05 Q1014 TEMPO -RADZ BKN014
17:25
M
7 °C 10 km+ 1.800 ft 160° 160° 8 kt METAR EHLE 271625Z AUTO 16008KT 9999 OVC018 07/05 Q1014 TEMPO -RADZ BKN014
16:55
M
7 °C 10 km+ 1.800 ft 160° 160° 10 kt METAR EHLE 271555Z AUTO 16010KT 9999 SCT015 OVC018 07/05 Q1014 TEMPO -RADZ BKN014
16:25
M
7 °C 10 km+ 1.700 ft 160° 160° 10 kt METAR EHLE 271525Z AUTO 16010KT 9999 BKN017 OVC020 07/05 Q1015 BECMG BKN012
15:55
M
7 °C 10 km+ 1.600 ft 170° 170° 12 kt METAR EHLE 271455Z AUTO 17012KT 9999 BKN016 OVC019 07/05 Q1015 BECMG BKN012
15:25
M
7 °C 10 km+ 1.700 ft 160° 160° 13 kt METAR EHLE 271425Z AUTO 16013KT 9999 -DZ BKN017 OVC020 07/05 Q1015 NOSIG
14:55
M
7 °C 10 km+ 2.000 ft 160° 160° 10 kt METAR EHLE 271355Z AUTO 16010KT 9999 SCT017 OVC020 07/05 Q1016 NOSIG
14:25
M
7 °C 10 km+ 2.200 ft 160° 160° 10 kt METAR EHLE 271325Z AUTO 16010KT 9999 FEW018 BKN022 OVC025 07/05 Q1016 NOSIG
13:55
M
7 °C 10 km+ 2.400 ft 160° 160° 11 kt METAR EHLE 271255Z AUTO 16011KT 9999 SCT020 OVC024 07/06 Q1017 NOSIG
13:25
M
7 °C 10 km+ 2.600 ft 160° 160° 11 kt METAR EHLE 271225Z AUTO 16011KT 9999 FEW022 OVC026 07/06 Q1017 NOSIG
12:55
M
7 °C 10 km+ 2.200 ft 170° 170° 10 kt METAR EHLE 271155Z AUTO 17010KT 9999 SCT016 BKN022 OVC025 07/06 Q1018 NOSIG
12:25
M
7 °C 10 km+ 2.400 ft 170° 170° 12 kt METAR EHLE 271125Z AUTO 17012KT 140V200 9999 SCT021 BKN024 OVC030 07/06 Q1018 REDZ NOSIG
11:55
V
7 °C 10 km+ 3.200 ft 170° 170° 11 kt METAR EHLE 271055Z AUTO 17011KT 9999 OVC032 07/05 Q1019 NOSIG
11:25
V
7 °C 10 km+ 4.200 ft 170° 170° 11 kt METAR EHLE 271025Z AUTO 17011KT 9999 FEW037 BKN042 OVC049 07/05 Q1019 NOSIG
10:55
V
6 °C 10 km+ 3.700 ft 170° 170° 12 kt METAR EHLE 270955Z AUTO 17012KT 9999 DZ OVC037 06/05 Q1019 NOSIG

Wij en derden volgen je internetgedrag op onze website met cookies. Als je doorgaat, gaan we ervan uit dat je akkoord gaat met onze cookiebeleid.